Time;durP1;ratioP1;P1;durP2;ratioP2;P2;SDS_P1;SDS_P2;PMS_P1;PMS_P2;Temp;Humidity;BMP_temperature;BMP_pressure;BME280_temperature;BME280_humidity;BME280_pressure;Samples;Min_cycle;Max_cycle;Signal;HPM_P1;HPM_P2
2023/07/29 00:01:00;;;;;;;2.78;1.40;;;;;;;28.00;50.65;98631.09;2088206;28;20121;-50
2023/07/29 00:02:00;;;;;;;4.50;1.98;;;;;;;28.03;50.78;98636.06;2090044;28;21413;-51
2023/07/29 00:03:04;;;;;;;4.53;2.08;;;;;;;28.06;50.54;98635.53;2088621;28;20056;-51
2023/07/29 00:04:04;;;;;;;3.47;2.00;;;;;;;28.09;50.23;98631.44;2081995;28;20085;-52
2023/07/29 00:05:07;;;;;;;2.95;2.28;;;;;;;28.12;50.19;98636.38;2087261;28;20082;-51
2023/07/29 00:06:09;;;;;;;3.85;1.42;;;;;;;28.08;50.49;98638.78;2086244;28;20136;-52
2023/07/29 00:07:11;;;;;;;2.88;1.88;;;;;;;28.10;50.37;98638.53;2084600;28;20631;-54
2023/07/29 00:08:12;;;;;;;5.85;2.25;;;;;;;28.10;50.22;98633.06;2088417;28;20132;-51
2023/07/29 00:09:13;;;;;;;5.78;2.40;;;;;;;28.06;50.41;98635.53;2087839;28;20055;-53
2023/07/29 00:10:14;;;;;;;7.20;2.45;;;;;;;28.07;50.35;98631.69;2088262;28;20048;-50
2023/07/29 00:11:16;;;;;;;3.45;1.77;;;;;;;28.06;50.06;98633.63;2089049;28;20417;-51
2023/07/29 00:12:16;;;;;;;2.20;2.00;;;;;;;28.05;50.38;98625.69;2088439;28;20094;-53
2023/07/29 00:13:18;;;;;;;4.93;2.30;;;;;;;27.84;51.28;98624.78;2086131;28;20048;-54
2023/07/29 00:14:19;;;;;;;5.00;3.03;;;;;;;27.57;51.82;98622.94;2086838;28;20064;-51
2023/07/29 00:15:21;;;;;;;4.47;2.33;;;;;;;27.65;52.14;98616.19;2087365;28;20505;-53
2023/07/29 00:16:22;;;;;;;8.18;2.30;;;;;;;27.50;52.30;98619.66;2088280;28;20106;-51
2023/07/29 00:17:24;;;;;;;3.55;2.08;;;;;;;27.43;52.43;98615.50;2088371;28;20044;-52
2023/07/29 00:18:27;;;;;;;4.55;1.83;;;;;;;27.40;52.95;98612.22;2086221;28;20076;-52
2023/07/29 00:19:29;;;;;;;6.60;2.25;;;;;;;27.47;52.54;98609.28;2080397;28;20139;-53
2023/07/29 00:20:29;;;;;;;3.40;1.67;;;;;;;27.55;52.03;98611.53;2078903;28;20334;-51
2023/07/29 00:21:30;;;;;;;7.38;2.38;;;;;;;27.55;52.04;98606.06;2080694;28;20052;-50
2023/07/29 00:22:32;;;;;;;3.22;1.95;;;;;;;27.57;52.00;98608.50;2080937;28;20084;-54
2023/07/29 00:23:33;;;;;;;5.45;1.70;;;;;;;27.60;51.99;98613.44;2074299;28;20053;-53
2023/07/29 00:24:35;;;;;;;6.32;2.33;;;;;;;27.61;51.82;98605.00;2076432;28;20389;-54
2023/07/29 00:25:35;;;;;;;4.63;2.38;;;;;;;27.64;51.90;98611.84;2082543;28;20072;-52
2023/07/29 00:26:37;;;;;;;6.65;1.80;;;;;;;27.58;52.13;98616.44;2088730;28;20409;-50
2023/07/29 00:27:38;;;;;;;7.10;3.50;;;;;;;27.60;52.00;98618.88;2088525;28;21639;-52
2023/07/29 00:28:40;;;;;;;5.68;2.42;;;;;;;27.53;52.08;98608.22;2086157;28;20526;-51
2023/07/29 00:29:40;;;;;;;4.28;1.77;;;;;;;27.53;51.74;98618.31;2087406;28;20056;-52
2023/07/29 00:30:41;;;;;;;4.65;2.20;;;;;;;27.51;51.83;98620.47;2086599;28;20076;-54
2023/07/29 00:31:43;;;;;;;3.55;1.67;;;;;;;27.47;52.13;98619.34;2085578;28;20115;-52
2023/07/29 00:32:44;;;;;;;5.07;2.53;;;;;;;27.47;52.07;98622.06;2078863;28;20049;-51
2023/07/29 00:33:47;;;;;;;3.80;1.92;;;;;;;27.54;52.02;98614.50;2079723;28;20053;-53
2023/07/29 00:34:48;;;;;;;5.75;2.42;;;;;;;27.60;51.40;98613.44;2084749;28;20655;-50
2023/07/29 00:35:49;;;;;;;5.78;1.77;;;;;;;27.62;51.71;98614.00;2086311;28;20048;-53
2023/07/29 00:36:50;;;;;;;4.90;2.42;;;;;;;27.66;51.38;98612.38;2086517;28;20493;-53
2023/07/29 00:37:52;;;;;;;3.22;2.70;;;;;;;27.70;51.49;98616.22;2085016;28;20052;-49
2023/07/29 00:38:54;;;;;;;5.07;2.13;;;;;;;27.71;51.32;98614.31;2084565;28;20060;-50
2023/07/29 00:39:56;;;;;;;3.47;2.22;;;;;;;27.67;51.30;98619.47;2082267;28;20076;-52
2023/07/29 00:40:57;;;;;;;7.43;2.17;;;;;;;27.62;51.21;98619.44;2087689;28;20484;-50
2023/07/29 00:41:59;;;;;;;5.15;2.17;;;;;;;27.57;51.70;98624.88;2087119;28;20614;-53
2023/07/29 00:43:00;;;;;;;3.95;1.90;;;;;;;27.58;51.72;98626.50;2084978;28;20052;-53
2023/07/29 00:44:02;;;;;;;6.22;1.90;;;;;;;27.58;51.68;98621.03;2083650;28;20047;-51
2023/07/29 00:45:06;;;;;;;5.45;2.33;;;;;;;27.57;51.31;98614.78;2085173;28;20037;-51
2023/07/29 00:46:09;;;;;;;6.75;2.83;;;;;;;27.56;51.43;98624.03;2087172;28;20477;-51
2023/07/29 00:47:12;;;;;;;5.57;1.90;;;;;;;27.55;51.27;98610.69;2088889;28;20049;-53
2023/07/29 00:48:14;;;;;;;4.47;2.20;;;;;;;27.52;51.61;98616.66;2089506;28;20052;-49
2023/07/29 00:49:16;;;;;;;3.75;1.98;;;;;;;27.55;51.74;98613.41;2085840;28;20060;-52
2023/07/29 00:50:18;;;;;;;6.28;1.80;;;;;;;27.57;51.43;98608.50;2087294;28;20482;-50
2023/07/29 00:51:19;;;;;;;5.00;2.22;;;;;;;27.57;51.40;98619.41;2077766;28;20059;-54
2023/07/29 00:52:20;;;;;;;5.97;1.85;;;;;;;27.60;51.09;98616.97;2079846;28;20045;-55
2023/07/29 00:53:22;;;;;;;5.18;2.20;;;;;;;27.67;51.25;98615.94;2080477;28;20254;-51
2023/07/29 00:54:23;;;;;;;6.63;2.47;;;;;;;27.65;51.30;98618.09;2080306;28;20566;-53
2023/07/29 00:55:25;;;;;;;3.80;2.20;;;;;;;27.68;51.10;98623.84;2078906;28;20045;-49
2023/07/29 00:56:26;;;;;;;9.07;2.78;;;;;;;27.71;50.81;98619.78;2079050;28;20102;-52
2023/07/29 00:57:30;;;;;;;3.60;1.60;;;;;;;27.70;50.86;98618.97;2071032;28;20098;-52
2023/07/29 00:58:31;;;;;;;5.03;1.88;;;;;;;27.69;50.92;98620.03;2077926;28;20581;-52
2023/07/29 00:59:33;;;;;;;6.82;2.00;;;;;;;27.69;50.88;98622.75;2077469;28;20079;-49
2023/07/29 01:00:34;;;;;;;4.47;2.10;;;;;;;27.71;50.90;98625.22;2077638;28;20042;-50
2023/07/29 01:01:36;;;;;;;3.30;1.60;;;;;;;27.73;50.78;98623.06;2080170;28;20056;-52
2023/07/29 01:02:37;;;;;;;6.63;2.70;;;;;;;27.74;50.70;98619.25;2079334;28;20107;-53
2023/07/29 01:03:39;;;;;;;3.70;1.63;;;;;;;27.74;50.87;98616.50;2082859;28;20044;-49
2023/07/29 01:04:41;;;;;;;5.28;2.00;;;;;;;27.75;50.62;98616.25;2084372;28;20068;-51
2023/07/29 01:05:51;;;;;;;2.00;1.48;;;;;;;27.77;50.69;98613.25;2078720;28;20044;-50
2023/07/29 01:07:00;;;;;;;3.40;2.20;;;;;;;27.71;50.75;98623.31;2079415;28;20073;-51
2023/07/29 01:08:10;;;;;;;5.65;2.20;;;;;;;27.64;50.78;98620.00;2077671;28;20092;-53
2023/07/29 01:09:20;;;;;;;8.35;2.20;;;;;;;27.47;51.09;98606.56;2078182;28;20137;-54
2023/07/29 01:10:34;;;;;;;7.53;2.13;;;;;;;27.42;51.00;98617.41;2076851;28;20565;-54
2023/07/29 01:11:42;;;;;;;4.68;2.50;;;;;;;27.31;51.15;98619.25;2078212;28;20085;-51
2023/07/29 01:12:52;;;;;;;5.63;2.70;;;;;;;27.20;52.17;98612.09;2079157;28;20911;-50
2023/07/29 01:13:58;;;;;;;6.90;2.15;;;;;;;27.10;52.07;98615.50;2080845;28;20156;-51
2023/07/29 01:15:08;;;;;;;7.05;3.10;;;;;;;27.06;52.24;98613.59;2076408;28;20049;-51
2023/07/29 01:16:15;;;;;;;4.85;2.40;;;;;;;27.19;51.75;98615.88;2079156;28;20576;-51
2023/07/29 01:17:24;;;;;;;2.67;1.65;;;;;;;27.28;51.76;98610.78;2077941;28;20513;-50
2023/07/29 01:18:28;;;;;;;6.20;3.10;;;;;;;27.33;51.52;98608.91;2071395;28;20041;-51
2023/07/29 01:19:49;;;;;;;4.82;2.22;;;;;;;27.30;51.33;98609.44;2077372;28;20075;-53
2023/07/29 01:20:53;;;;;;;5.60;3.53;;;;;;;27.31;51.25;98613.81;2078770;28;20859;-52
2023/07/29 01:21:57;;;;;;;6.10;2.25;;;;;;;27.37;51.32;98610.03;2077771;28;20512;-50
2023/07/29 01:22:57;;;;;;;5.50;2.22;;;;;;;27.43;51.47;98618.25;2076840;28;20057;-54
2023/07/29 01:24:01;;;;;;;3.90;2.00;;;;;;;27.48;51.13;98607.38;2076218;28;20539;-55
2023/07/29 01:25:01;;;;;;;6.13;2.85;;;;;;;27.52;51.18;98611.19;2077132;28;20046;-50
2023/07/29 01:26:04;;;;;;;6.63;2.28;;;;;;;27.48;50.95;98618.28;2078040;28;20103;-54
2023/07/29 01:27:05;;;;;;;3.45;2.10;;;;;;;27.49;50.82;98611.72;2076773;28;20049;-52
2023/07/29 01:28:07;;;;;;;6.10;2.08;;;;;;;27.52;51.23;98611.19;2076399;28;20057;-53
2023/07/29 01:29:08;;;;;;;4.32;1.80;;;;;;;27.46;50.87;98607.63;2077596;28;20080;-50
2023/07/29 01:30:10;;;;;;;1.95;1.85;;;;;;;27.40;51.34;98605.97;2087145;28;20049;-50
2023/07/29 01:31:16;;;;;;;4.18;1.95;;;;;;;27.37;50.90;98610.03;2080273;28;20262;-50
2023/07/29 01:32:22;;;;;;;2.42;1.60;;;;;;;27.43;50.97;98613.59;2081020;28;20511;-54
2023/07/29 01:33:27;;;;;;;4.88;2.13;;;;;;;27.45;50.92;98611.44;2078880;28;20052;-52
2023/07/29 01:34:35;;;;;;;3.03;2.00;;;;;;;27.51;50.95;98598.69;2080490;28;20582;-50
2023/07/29 01:35:46;;;;;;;3.28;2.53;;;;;;;27.53;50.68;98596.53;2073079;28;20639;-53
2023/07/29 01:36:49;;;;;;;4.97;1.77;;;;;;;27.51;50.78;98598.69;2080016;28;20136;-52
2023/07/29 01:37:56;;;;;;;4.13;2.60;;;;;;;27.52;50.69;98603.03;2081668;28;20049;-54
2023/07/29 01:39:00;;;;;;;5.00;1.73;;;;;;;27.55;50.81;98600.63;2080527;28;20048;-54
2023/07/29 01:40:02;;;;;;;3.60;2.30;;;;;;;27.56;50.55;98593.25;2078443;28;20574;-53
2023/07/29 01:41:04;;;;;;;3.83;1.85;;;;;;;27.55;50.44;98600.63;2079413;28;20534;-53
2023/07/29 01:42:06;;;;;;;3.53;2.00;;;;;;;27.54;50.53;98598.97;2079664;28;20049;-54
2023/07/29 01:43:08;;;;;;;7.00;2.33;;;;;;;27.55;50.54;98602.50;2078207;28;20470;-52
2023/07/29 01:44:11;;;;;;;4.90;2.35;;;;;;;27.55;50.61;98599.78;2079423;28;20427;-53
2023/07/29 01:45:12;;;;;;;4.47;1.67;;;;;;;27.55;50.52;98600.63;2078601;28;20492;-49
2023/07/29 01:46:13;;;;;;;5.00;2.20;;;;;;;27.49;50.52;98598.13;2079272;28;20049;-52
2023/07/29 01:47:14;;;;;;;3.08;1.60;;;;;;;27.49;50.72;98600.84;2080326;28;20053;-53
2023/07/29 01:48:15;;;;;;;4.30;2.03;;;;;;;27.51;50.77;98598.69;2077662;28;20079;-50
2023/07/29 01:49:17;;;;;;;5.47;2.05;;;;;;;27.45;50.94;98594.28;2078579;28;20060;-54
2023/07/29 01:50:18;;;;;;;2.50;2.13;;;;;;;27.45;50.69;98597.81;2077751;28;20484;-55
2023/07/29 01:51:20;;;;;;;4.20;2.08;;;;;;;27.46;50.56;98595.91;2074372;28;20053;-53
2023/07/29 01:52:21;;;;;;;4.82;1.70;;;;;;;27.43;50.42;98596.44;2079403;28;20124;-55
2023/07/29 01:53:22;;;;;;;5.82;2.95;;;;;;;27.45;50.50;98599.75;2080959;28;20040;-53
2023/07/29 01:54:25;;;;;;;4.07;2.25;;;;;;;27.47;50.50;98598.41;2080979;28;20135;-55
2023/07/29 01:55:26;;;;;;;4.45;2.45;;;;;;;27.36;50.95;98600.22;2080402;28;20053;-49
2023/07/29 01:56:27;;;;;;;7.70;2.92;;;;;;;27.36;51.07;98594.78;2078313;28;20401;-53
2023/07/29 01:57:28;;;;;;;9.10;2.25;;;;;;;27.38;50.96;98592.59;2078884;28;20476;-56
2023/07/29 01:58:29;;;;;;;2.47;1.90;;;;;;;27.42;50.85;98597.53;2081341;28;20072;-54
2023/07/29 01:59:31;;;;;;;8.15;2.50;;;;;;;27.43;50.73;98591.81;2078428;28;20075;-50
2023/07/29 02:00:31;;;;;;;3.30;1.70;;;;;;;27.49;50.32;98595.38;2079279;28;20074;-52
2023/07/29 02:01:33;;;;;;;6.63;2.88;;;;;;;27.49;50.82;98595.38;2079692;28;20736;-51
2023/07/29 02:02:34;;;;;;;3.60;2.58;;;;;;;27.48;50.28;98593.75;2080389;28;20045;-51
2023/07/29 02:03:36;;;;;;;6.75;2.05;;;;;;;27.44;50.70;98593.44;2079526;28;20057;-49
2023/07/29 02:04:37;;;;;;;5.07;1.85;;;;;;;27.37;50.58;98588.25;2080330;28;20048;-52
2023/07/29 02:05:39;;;;;;;3.65;2.67;;;;;;;27.40;50.58;98593.16;2078289;28;21358;-53
2023/07/29 02:06:39;;;;;;;9.15;1.95;;;;;;;27.40;50.82;98590.44;2081845;28;20579;-51
2023/07/29 02:07:41;;;;;;;8.77;4.13;;;;;;;27.21;50.85;98597.38;2074072;28;20060;-54
2023/07/29 02:08:42;;;;;;;5.20;2.45;;;;;;;27.05;51.19;98585.53;2081384;28;20535;-53
2023/07/29 02:09:45;;;;;;;3.25;1.83;;;;;;;27.01;51.53;98587.13;2082534;28;20053;-50
2023/07/29 02:10:46;;;;;;;4.30;1.90;;;;;;;27.07;51.18;98588.81;2077706;28;20068;-54
2023/07/29 02:11:47;;;;;;;3.78;2.30;;;;;;;27.15;51.41;98576.63;2080610;28;20409;-51
2023/07/29 02:12:48;;;;;;;6.68;2.60;;;;;;;27.21;51.30;98593.84;2080916;28;20148;-54
2023/07/29 02:13:50;;;;;;;4.75;2.20;;;;;;;27.22;50.94;98590.03;2080955;28;20041;-52
2023/07/29 02:14:50;;;;;;;5.90;2.25;;;;;;;27.24;51.39;98585.16;2079337;28;20547;-53
2023/07/29 02:15:52;;;;;;;6.28;2.45;;;;;;;27.16;50.93;98581.00;2078947;28;20044;-53
2023/07/29 02:16:53;;;;;;;4.85;2.60;;;;;;;27.12;51.23;98585.31;2079721;28;20111;-54
2023/07/29 02:17:55;;;;;;;7.80;1.90;;;;;;;27.13;51.21;98592.38;2078630;28;20053;-54
2023/07/29 02:18:55;;;;;;;6.82;2.30;;;;;;;27.13;51.53;98590.47;2079061;28;20514;-50
2023/07/29 02:19:57;;;;;;;5.22;2.08;;;;;;;27.04;51.90;98593.97;2080649;28;20053;-54
2023/07/29 02:20:58;;;;;;;8.52;2.38;;;;;;;27.03;51.82;98579.53;2079781;28;20040;-51
2023/07/29 02:21:59;;;;;;;3.35;2.08;;;;;;;27.02;51.74;98586.03;2076744;28;20375;-52
2023/07/29 02:23:00;;;;;;;4.20;2.03;;;;;;;27.04;51.63;98591.22;2080766;28;20060;-53
2023/07/29 02:24:02;;;;;;;5.38;2.15;;;;;;;27.05;51.66;98591.00;2075137;28;20585;-51
2023/07/29 02:25:05;;;;;;;7.53;2.33;;;;;;;27.08;51.28;98597.78;2077671;28;20701;-53
2023/07/29 02:26:07;;;;;;;6.07;2.38;;;;;;;27.07;51.51;98596.97;2079914;28;20095;-51
2023/07/29 02:27:07;;;;;;;4.38;2.30;;;;;;;27.07;51.54;98596.16;2080400;28;20486;-54
2023/07/29 02:28:09;;;;;;;4.28;2.30;;;;;;;27.08;51.56;98603.22;2081104;28;20053;-50
2023/07/29 02:29:10;;;;;;;4.97;2.80;;;;;;;27.09;51.70;98602.97;2079480;28;20080;-54
2023/07/29 02:30:12;;;;;;;6.25;2.58;;;;;;;27.08;51.50;98598.63;2080906;28;20052;-52
2023/07/29 02:31:16;;;;;;;4.85;2.40;;;;;;;27.03;51.50;98605.94;2078349;28;20170;-54
2023/07/29 02:32:18;;;;;;;3.55;2.60;;;;;;;26.89;52.33;98603.63;2080047;28;20073;-54
2023/07/29 02:33:19;;;;;;;2.55;2.00;;;;;;;26.91;51.90;98597.91;2079670;28;20052;-53
2023/07/29 02:34:21;;;;;;;6.15;2.08;;;;;;;26.95;51.87;98590.91;2080035;28;20143;-53
2023/07/29 02:35:22;;;;;;;5.13;2.17;;;;;;;26.90;51.78;98597.09;2081128;28;20151;-54
2023/07/29 02:36:23;;;;;;;5.20;2.10;;;;;;;26.78;52.19;98601.91;2078388;28;20045;-53
2023/07/29 02:37:24;;;;;;;6.38;2.63;;;;;;;26.81;52.51;98597.84;2079929;28;20049;-52
2023/07/29 02:38:26;;;;;;;4.00;2.10;;;;;;;26.84;52.47;98600.06;2080637;28;20045;-53
2023/07/29 02:39:26;;;;;;;4.13;2.08;;;;;;;26.90;51.84;98593.56;2087807;28;20067;-53
2023/07/29 02:40:30;;;;;;;3.78;1.92;;;;;;;26.94;52.03;98592.81;2080642;28;20064;-52
2023/07/29 02:41:30;;;;;;;5.55;2.92;;;;;;;26.90;52.09;98588.13;2082176;28;20041;-50
2023/07/29 02:42:32;;;;;;;5.10;2.15;;;;;;;26.80;52.60;98594.31;2073546;28;20049;-53
2023/07/29 02:43:33;;;;;;;5.00;2.03;;;;;;;26.79;52.63;98587.22;2077958;28;20108;-50
2023/07/29 02:44:33;;;;;;;4.85;2.10;;;;;;;26.83;52.44;98592.94;2079536;28;20594;-54
2023/07/29 02:45:35;;;;;;;3.72;2.47;;;;;;;26.71;52.94;98588.50;2079998;28;20057;-50
2023/07/29 02:46:36;;;;;;;4.45;2.22;;;;;;;26.81;52.27;98585.06;2080717;28;20072;-49
2023/07/29 02:47:38;;;;;;;6.07;1.98;;;;;;;26.86;52.34;98584.28;2080609;28;20049;-53
2023/07/29 02:48:38;;;;;;;5.78;2.53;;;;;;;26.89;52.16;98587.31;2081340;28;20139;-52
2023/07/29 02:49:40;;;;;;;3.90;2.80;;;;;;;26.91;52.04;98584.31;2077422;28;20041;-55
2023/07/29 02:50:41;;;;;;;4.95;2.15;;;;;;;26.86;51.98;98584.28;2080113;28;20439;-53
2023/07/29 02:51:42;;;;;;;5.50;2.42;;;;;;;26.81;52.50;98595.13;2084423;28;20056;-50
2023/07/29 02:52:43;;;;;;;4.93;2.28;;;;;;;26.84;52.01;98586.44;2083760;28;20111;-53
2023/07/29 02:53:44;;;;;;;7.32;2.22;;;;;;;26.87;51.83;98586.75;2079258;28;20056;-52
2023/07/29 02:54:45;;;;;;;9.57;2.47;;;;;;;26.89;51.85;98590.03;2080610;28;20053;-53
2023/07/29 02:55:48;;;;;;;5.78;2.28;;;;;;;26.95;51.72;98591.72;2079993;28;20080;-51
2023/07/29 02:56:51;;;;;;;4.45;2.42;;;;;;;26.99;52.16;98597.44;2080626;28;20131;-51
2023/07/29 02:57:52;;;;;;;4.38;2.15;;;;;;;27.03;52.01;98593.13;2079854;28;20132;-54
2023/07/29 02:58:54;;;;;;;6.05;2.67;;;;;;;27.04;51.78;98596.69;2078748;28;20561;-55
2023/07/29 02:59:54;;;;;;;5.32;2.15;;;;;;;27.04;52.01;98593.97;2079848;28;20523;-51
2023/07/29 03:01:01;;;;;;;3.72;2.25;;;;;;;27.06;51.91;98600.78;2081367;28;20044;-53
2023/07/29 03:02:02;;;;;;;5.97;1.73;;;;;;;27.08;51.60;98603.22;2070193;28;20129;-53
2023/07/29 03:03:04;;;;;;;6.95;2.05;;;;;;;27.09;51.53;98596.72;2077154;28;20057;-52
2023/07/29 03:04:05;;;;;;;4.78;2.33;;;;;;;27.05;51.60;98601.03;2077392;28;20413;-53
2023/07/29 03:05:07;;;;;;;3.28;1.60;;;;;;;27.06;51.46;98602.69;2079602;28;20156;-50
2023/07/29 03:06:11;;;;;;;3.58;2.15;;;;;;;27.04;51.86;98604.84;2077965;28;20049;-54
2023/07/29 03:07:13;;;;;;;3.75;2.13;;;;;;;26.98;52.20;98600.44;2078861;28;20123;-53
2023/07/29 03:08:14;;;;;;;6.03;2.10;;;;;;;26.94;52.15;98602.84;2086831;28;20503;-51
2023/07/29 03:09:16;;;;;;;4.65;2.10;;;;;;;26.94;52.19;98600.97;2089306;28;20065;-53
2023/07/29 03:10:17;;;;;;;3.20;2.08;;;;;;;26.97;52.09;98602.34;2088537;28;20084;-53
2023/07/29 03:11:20;;;;;;;3.03;1.63;;;;;;;27.00;51.97;98596.38;2087288;28;20037;-53
2023/07/29 03:12:21;;;;;;;5.20;2.85;;;;;;;27.01;51.81;98602.66;2088080;28;20605;-53
2023/07/29 03:13:23;;;;;;;6.00;2.95;;;;;;;27.00;51.85;98599.09;2087438;28;20049;-52
2023/07/29 03:14:24;;;;;;;5.55;2.13;;;;;;;27.00;52.07;98601.00;2088373;28;20554;-49
2023/07/29 03:15:25;;;;;;;5.18;1.88;;;;;;;27.01;51.99;98603.47;2089898;28;20299;-52
2023/07/29 03:16:26;;;;;;;4.10;1.90;;;;;;;27.01;52.17;98600.75;2090316;28;20486;-53
2023/07/29 03:17:27;;;;;;;6.50;1.75;;;;;;;27.02;51.94;98590.66;2089198;28;20074;-53
2023/07/29 03:18:29;;;;;;;4.80;2.50;;;;;;;27.04;51.76;98604.84;2080012;28;20298;-52
2023/07/29 03:19:30;;;;;;;5.85;2.10;;;;;;;27.04;52.08;98599.41;2086959;28;20056;-54
2023/07/29 03:20:31;;;;;;;7.13;3.17;;;;;;;27.01;52.20;98599.91;2087110;28;20048;-51
2023/07/29 03:21:32;;;;;;;3.58;2.20;;;;;;;27.01;52.14;98599.91;2082553;28;20072;-52
2023/07/29 03:22:34;;;;;;;5.90;1.98;;;;;;;26.99;52.46;98602.06;2087863;28;20492;-53
2023/07/29 03:23:35;;;;;;;5.53;2.35;;;;;;;26.95;52.34;98599.88;2085622;28;20352;-54
2023/07/29 03:24:37;;;;;;;4.88;2.20;;;;;;;26.98;52.16;98603.16;2085427;28;20048;-49
2023/07/29 03:25:38;;;;;;;3.00;1.90;;;;;;;26.98;52.51;98605.88;2087157;28;20125;-53
2023/07/29 03:26:41;;;;;;;5.70;2.33;;;;;;;27.00;52.09;98601.00;2086525;28;20053;-50
2023/07/29 03:27:41;;;;;;;2.55;1.98;;;;;;;27.00;51.94;98617.34;2085945;28;20075;-53
2023/07/29 03:28:44;;;;;;;5.00;2.45;;;;;;;26.98;52.43;98605.88;2087921;28;20063;-50
2023/07/29 03:29:45;;;;;;;6.22;2.25;;;;;;;26.91;51.92;98598.75;2086077;28;20048;-51
2023/07/29 03:30:46;;;;;;;4.63;2.30;;;;;;;26.91;52.55;98604.22;2088805;28;20045;-54
2023/07/29 03:31:47;;;;;;;5.05;2.17;;;;;;;26.92;52.48;98607.75;2087240;28;20133;-53
2023/07/29 03:32:50;;;;;;;9.15;2.60;;;;;;;26.90;52.47;98599.81;2088122;28;20099;-50
2023/07/29 03:33:51;;;;;;;3.45;1.98;;;;;;;26.90;52.23;98602.53;2087555;28;20559;-50
2023/07/29 03:34:53;;;;;;;3.80;2.50;;;;;;;26.90;52.01;98604.44;2081240;28;20048;-51
2023/07/29 03:35:54;;;;;;;5.40;2.20;;;;;;;26.86;52.52;98596.00;2085598;28;20052;-51
2023/07/29 03:36:56;;;;;;;4.82;2.30;;;;;;;26.86;52.62;98600.63;2087271;28;20506;-53
2023/07/29 03:37:56;;;;;;;7.25;2.50;;;;;;;26.84;52.33;98597.31;2084247;28;20053;-50
2023/07/29 03:38:58;;;;;;;2.67;2.00;;;;;;;26.84;52.47;98600.88;2087346;28;20490;-52
2023/07/29 03:39:59;;;;;;;6.10;2.47;;;;;;;26.84;52.45;98603.59;2086282;28;20071;-53
2023/07/29 03:41:02;;;;;;;7.30;2.83;;;;;;;26.83;52.31;98599.25;2086113;28;20048;-52
2023/07/29 03:42:05;;;;;;;4.85;2.10;;;;;;;26.82;52.39;98597.56;2087755;28;20048;-51
2023/07/29 03:43:06;;;;;;;6.40;2.20;;;;;;;26.79;52.53;98603.53;2085020;28;20044;-51
2023/07/29 03:44:07;;;;;;;5.60;2.28;;;;;;;26.79;52.37;98602.72;2088010;28;20055;-55
2023/07/29 03:45:10;;;;;;;4.82;2.03;;;;;;;26.78;52.66;98601.09;2086460;28;20135;-52
2023/07/29 03:46:10;;;;;;;4.18;2.08;;;;;;;26.66;53.20;98598.50;2088140;28;20241;-53
2023/07/29 03:47:12;;;;;;;3.45;2.38;;;;;;;26.68;52.98;98601.81;2084971;28;20078;-50
2023/07/29 03:48:13;;;;;;;4.72;1.92;;;;;;;26.62;52.84;98609.09;2086279;28;20098;-50
2023/07/29 03:49:14;;;;;;;3.92;2.20;;;;;;;26.65;53.32;98603.13;2085756;28;20102;-51
2023/07/29 03:50:15;;;;;;;6.00;2.22;;;;;;;26.65;53.34;98611.28;2087148;28;20063;-50
2023/07/29 03:51:17;;;;;;;6.18;2.92;;;;;;;26.45;53.37;98609.16;2086180;28;22355;-50
2023/07/29 03:52:18;;;;;;;4.22;2.17;;;;;;;26.47;53.66;98609.72;2077455;28;20041;-55
2023/07/29 03:53:20;;;;;;;4.00;2.05;;;;;;;26.57;53.28;98608.22;2086373;28;20431;-52
2023/07/29 03:54:21;;;;;;;4.88;2.83;;;;;;;26.58;53.12;98607.13;2088008;28;21049;-51
2023/07/29 03:55:22;;;;;;;7.70;2.97;;;;;;;26.57;53.46;98603.59;2085608;28;20056;-50
2023/07/29 03:56:24;;;;;;;5.80;2.08;;;;;;;26.61;53.05;98614.81;2086562;28;20048;-55
2023/07/29 03:57:26;;;;;;;8.38;3.03;;;;;;;26.63;53.28;98605.28;2087531;28;20127;-53
2023/07/29 03:58:28;;;;;;;7.03;2.10;;;;;;;26.52;53.68;98612.53;2085614;28;20577;-54
2023/07/29 03:59:29;;;;;;;8.15;2.20;;;;;;;26.56;53.25;98604.69;2085832;28;20048;-54
2023/07/29 04:00:30;;;;;;;5.07;2.33;;;;;;;26.61;52.99;98612.91;2089079;28;20632;-49
2023/07/29 04:01:31;;;;;;;7.50;2.47;;;;;;;26.62;52.95;98609.09;2084036;28;20101;-53
2023/07/29 04:02:33;;;;;;;6.32;2.25;;;;;;;26.65;53.02;98621.38;2087511;28;20106;-52
2023/07/29 04:03:34;;;;;;;6.15;2.70;;;;;;;26.67;53.28;98619.22;2085989;28;20199;-52
2023/07/29 04:04:35;;;;;;;10.95;2.35;;;;;;;26.64;53.25;98617.00;2086555;28;20135;-50
2023/07/29 04:05:36;;;;;;;6.60;2.80;;;;;;;26.66;53.09;98612.09;2085624;28;20053;-51
2023/07/29 04:06:38;;;;;;;6.05;2.25;;;;;;;26.65;53.32;98618.63;2088109;28;20044;-51
2023/07/29 04:07:40;;;;;;;6.38;2.53;;;;;;;26.66;52.90;98615.69;2088091;28;20044;-53
2023/07/29 04:08:42;;;;;;;7.60;2.45;;;;;;;26.68;52.85;98615.41;2082274;28;20063;-53
2023/07/29 04:09:43;;;;;;;8.15;2.78;;;;;;;26.68;52.90;98621.66;2084717;28;20143;-50
2023/07/29 04:10:44;;;;;;;8.13;2.47;;;;;;;26.68;53.25;98624.38;2087109;28;20155;-52
2023/07/29 04:11:46;;;;;;;9.93;3.10;;;;;;;26.69;53.19;98633.34;2082388;28;20049;-51
2023/07/29 04:12:48;;;;;;;5.93;2.40;;;;;;;26.69;52.84;98630.63;2084490;28;20056;-49
2023/07/29 04:13:50;;;;;;;6.07;2.60;;;;;;;26.71;53.25;98633.94;2085929;28;20091;-49
2023/07/29 04:14:50;;;;;;;4.50;2.58;;;;;;;26.73;53.10;98629.06;2083783;28;20063;-51
2023/07/29 04:15:52;;;;;;;6.90;2.70;;;;;;;26.73;53.24;98632.59;2086630;28;20064;-53
2023/07/29 04:16:53;;;;;;;6.40;2.67;;;;;;;26.70;52.90;98622.22;2086717;28;20124;-51
2023/07/29 04:17:54;;;;;;;4.85;2.50;;;;;;;26.68;53.17;98624.38;2087719;28;20048;-53
2023/07/29 04:18:55;;;;;;;3.22;2.40;;;;;;;26.60;53.55;98626.75;2087205;28;20576;-54
2023/07/29 04:19:57;;;;;;;2.63;1.65;;;;;;;26.63;53.63;98620.78;2086180;28;20049;-53
2023/07/29 04:20:57;;;;;;;6.43;2.42;;;;;;;26.62;53.52;98619.97;2087164;28;20048;-51
2023/07/29 04:21:59;;;;;;;4.28;2.33;;;;;;;26.63;53.52;98618.06;2086898;28;20048;-51
2023/07/29 04:23:00;;;;;;;6.35;2.92;;;;;;;26.68;53.26;98613.50;2089916;28;20056;-54
2023/07/29 04:24:02;;;;;;;5.05;2.45;;;;;;;26.71;53.42;98612.97;2086367;28;20461;-53
2023/07/29 04:25:04;;;;;;;9.25;2.47;;;;;;;26.76;53.22;98603.25;2088148;28;20075;-52
2023/07/29 04:26:06;;;;;;;5.07;2.50;;;;;;;26.77;53.14;98610.31;2086829;28;20037;-50
2023/07/29 04:27:07;;;;;;;5.97;1.88;;;;;;;26.80;52.88;98604.34;2088718;28;20072;-52
2023/07/29 04:28:10;;;;;;;5.78;2.38;;;;;;;26.81;52.62;98603.28;2081890;28;20044;-52
2023/07/29 04:29:10;;;;;;;4.72;2.15;;;;;;;26.81;52.51;98600.56;2083331;28;20843;-53
2023/07/29 04:30:12;;;;;;;5.15;2.58;;;;;;;26.84;52.65;98609.03;2080067;28;20207;-49
2023/07/29 04:31:13;;;;;;;3.83;1.42;;;;;;;26.84;52.93;98603.59;2086461;28;20153;-51
2023/07/29 04:32:14;;;;;;;6.10;2.45;;;;;;;26.84;52.88;98610.94;2086087;28;20511;-52
2023/07/29 04:33:15;;;;;;;5.18;2.30;;;;;;;26.82;52.88;98611.19;2087445;28;20053;-49
2023/07/29 04:34:18;;;;;;;7.90;2.28;;;;;;;26.78;52.83;98607.34;2086807;28;20060;-51
2023/07/29 04:35:19;;;;;;;3.83;2.55;;;;;;;26.78;53.20;98609.25;2085815;28;20076;-48
2023/07/29 04:36:21;;;;;;;4.82;2.17;;;;;;;26.74;52.91;98608.94;2085303;28;20045;-51
2023/07/29 04:37:21;;;;;;;4.53;2.15;;;;;;;26.77;52.84;98607.59;2086605;28;20060;-47
2023/07/29 04:38:25;;;;;;;4.68;2.22;;;;;;;26.67;53.64;98614.59;2087462;28;20140;-52
2023/07/29 04:39:26;;;;;;;5.15;2.10;;;;;;;26.71;52.85;98610.25;2085628;28;20044;-49
2023/07/29 04:40:28;;;;;;;6.07;1.90;;;;;;;26.74;52.97;98608.94;2087471;28;20063;-56
2023/07/29 04:41:28;;;;;;;7.18;2.58;;;;;;;26.77;53.15;98613.84;2087531;28;20163;-48
2023/07/29 04:42:30;;;;;;;3.80;1.75;;;;;;;26.82;52.77;98613.91;2086448;28;20068;-49
2023/07/29 04:43:32;;;;;;;3.35;1.70;;;;;;;26.85;52.81;98618.00;2085983;28;20080;-56
2023/07/29 04:44:34;;;;;;;6.43;1.95;;;;;;;26.90;52.73;98610.72;2088671;28;20068;-50
2023/07/29 04:45:35;;;;;;;5.82;2.22;;;;;;;26.90;52.86;98616.16;2088748;28;20143;-57
2023/07/29 04:46:37;;;;;;;9.88;2.35;;;;;;;26.91;53.14;98616.97;2080745;28;20053;-56
2023/07/29 04:47:38;;;;;;;3.42;1.90;;;;;;;26.87;52.90;98621.31;2083806;28;20055;-52
2023/07/29 04:48:39;;;;;;;4.63;2.30;;;;;;;26.89;52.84;98625.41;2079937;28;20712;-55
2023/07/29 04:49:41;;;;;;;4.03;2.25;;;;;;;26.88;53.36;98623.75;2076901;28;20347;-56
2023/07/29 04:50:41;;;;;;;3.60;1.70;;;;;;;26.88;53.20;98623.75;2077703;28;20057;-52
2023/07/29 04:51:43;;;;;;;5.38;2.03;;;;;;;26.87;53.25;98621.31;2075922;28;20049;-49
2023/07/29 04:52:44;;;;;;;2.70;1.60;;;;;;;26.85;52.98;98618.81;2076732;28;20129;-53